createdAt,value
2022-10-29T00:02:02.325Z,9.98
2022-10-29T00:04:31.952Z,10.52
2022-10-29T00:07:03.054Z,10.43
2022-10-29T00:09:32.235Z,9.27
2022-10-29T00:12:01.509Z,9.27
2022-10-29T00:14:35.663Z,9.25
2022-10-29T00:17:04.992Z,9.75
2022-10-29T00:19:34.026Z,8.52
2022-10-29T00:22:05.278Z,8.73
2022-10-29T00:24:34.639Z,10.38
2022-10-29T00:27:08.808Z,13.25
2022-10-29T00:29:37.944Z,15.50
2022-10-29T00:32:07.323Z,19.95
2022-10-29T00:34:36.520Z,17.83
2022-10-29T00:37:07.729Z,20.23
2022-10-29T00:39:36.862Z,19.42
2022-10-29T00:42:06.451Z,16.33
2022-10-29T00:44:38.547Z,22.17
2022-10-29T00:47:21.156Z,28.00
2022-10-29T00:50:00.026Z,28.23
2022-10-29T00:52:34.993Z,28.92
2022-10-29T00:55:09.089Z,28.67
2022-10-29T00:57:41.508Z,21.38
2022-10-29T01:00:14.275Z,15.50
2022-10-29T01:02:45.660Z,13.18
2022-10-29T01:05:23.319Z,12.25
2022-10-29T01:07:54.474Z,10.35
2022-10-29T01:10:33.367Z,9.55
2022-10-29T01:13:19.757Z,8.55
2022-10-29T01:16:00.180Z,8.18
2022-10-29T01:18:37.517Z,9.00
2022-10-29T01:21:52.022Z,7.80
2022-10-29T01:24:52.000Z,8.07
2022-10-29T01:27:51.463Z,8.23
2022-10-29T01:30:39.257Z,8.23
2022-10-29T01:33:23.088Z,7.80
2022-10-29T01:36:00.204Z,7.75
2022-10-29T01:38:38.183Z,8.05
2022-10-29T01:41:14.431Z,7.25
2022-10-29T01:46:29.482Z,7.57
2022-10-29T01:49:07.166Z,7.15
2022-10-29T01:51:38.454Z,7.40
2022-10-29T01:54:13.824Z,6.50
2022-10-29T01:56:44.653Z,6.32
2022-10-29T01:59:28.672Z,6.63
2022-10-29T02:02:14.388Z,6.60
2022-10-29T02:05:00.954Z,6.47
2022-10-29T02:07:40.404Z,6.03
2022-10-29T02:10:18.798Z,6.50
2022-10-29T02:12:51.038Z,6.97
2022-10-29T02:15:33.759Z,6.40
2022-10-29T02:18:04.975Z,5.97
2022-10-29T02:20:46.914Z,6.40
2022-10-29T02:23:17.629Z,6.20
2022-10-29T02:25:58.375Z,5.93
2022-10-29T02:28:32.566Z,6.25
2022-10-29T02:31:01.765Z,6.03
2022-10-29T02:33:30.945Z,5.65
2022-10-29T02:36:02.305Z,6.10
2022-10-29T02:38:31.456Z,5.97
2022-10-29T02:41:00.476Z,5.97
2022-10-29T02:43:29.644Z,7.05
2022-10-29T02:46:15.451Z,8.05
2022-10-29T02:48:50.036Z,8.65
2022-10-29T02:51:21.185Z,8.25
2022-10-29T02:53:50.559Z,8.60
2022-10-29T02:56:19.555Z,10.80
2022-10-29T02:58:48.822Z,10.95
2022-10-29T03:01:18.007Z,10.32
2022-10-29T03:03:47.223Z,11.05
2022-10-29T03:06:17.488Z,9.10
2022-10-29T03:08:54.044Z,8.05
2022-10-29T03:11:28.297Z,7.97
2022-10-29T03:13:57.757Z,7.18
2022-10-29T03:16:26.953Z,8.18
2022-10-29T03:18:55.954Z,7.60
2022-10-29T03:21:25.351Z,7.72
2022-10-29T03:23:56.576Z,6.85
2022-10-29T03:26:25.764Z,6.25
2022-10-29T03:28:54.802Z,6.93
2022-10-29T03:31:23.864Z,7.35
2022-10-29T03:33:58.224Z,6.65
2022-10-29T03:36:27.381Z,6.82
2022-10-29T03:38:58.405Z,6.57
2022-10-29T03:41:38.858Z,6.40
2022-10-29T03:44:13.061Z,6.80
2022-10-29T03:46:42.113Z,6.38
2022-10-29T03:49:11.178Z,6.70
2022-10-29T03:51:45.359Z,6.75
2022-10-29T03:54:16.424Z,6.57
2022-10-29T03:56:45.526Z,6.53
2022-10-29T04:01:49.760Z,6.15
2022-10-29T04:04:18.862Z,6.65
2022-10-29T04:06:48.044Z,6.15
2022-10-29T04:09:19.419Z,6.70
2022-10-29T04:11:48.895Z,6.10
2022-10-29T04:14:18.351Z,5.95
2022-10-29T04:19:22.648Z,5.97
2022-10-29T04:24:32.522Z,6.15
2022-10-29T04:27:08.072Z,5.60
2022-10-29T04:28:41.446Z,5.68
2022-10-29T04:30:37.459Z,5.70
2022-10-29T04:33:06.576Z,5.22
2022-10-29T04:35:35.767Z,5.10
2022-10-29T04:38:11.098Z,5.47
2022-10-29T04:40:42.272Z,5.18
2022-10-29T04:43:11.392Z,4.60
2022-10-29T04:45:40.576Z,4.93
2022-10-29T04:48:10.416Z,4.63
2022-10-29T04:50:40.338Z,4.97
2022-10-29T04:53:10.407Z,4.55
2022-10-29T04:55:41.871Z,4.32
2022-10-29T04:58:16.324Z,4.13
2022-10-29T05:00:46.120Z,4.72
2022-10-29T05:03:20.326Z,4.90
2022-10-29T05:05:49.492Z,4.35
2022-10-29T05:08:18.513Z,4.65
2022-10-29T05:10:54.685Z,4.47
2022-10-29T05:13:23.946Z,4.22
2022-10-29T05:15:53.859Z,4.30
2022-10-29T05:18:28.505Z,5.18
2022-10-29T05:20:58.339Z,4.30
2022-10-29T05:23:27.577Z,4.90
2022-10-29T05:25:59.224Z,5.10
2022-10-29T05:28:28.473Z,4.80
2022-10-29T05:30:57.546Z,4.75
2022-10-29T05:33:31.854Z,4.80
2022-10-29T05:36:01.873Z,4.97
2022-10-29T05:38:33.287Z,5.20
2022-10-29T05:41:05.041Z,5.03
2022-10-29T05:43:39.224Z,4.82
2022-10-29T05:46:08.416Z,5.30
2022-10-29T05:48:37.770Z,5.20
2022-10-29T05:51:07.240Z,6.05
2022-10-29T05:53:36.609Z,6.35
2022-10-29T05:56:08.997Z,6.10
2022-10-29T05:58:38.248Z,5.95
2022-10-29T06:01:08.905Z,6.72
2022-10-29T06:03:43.146Z,5.95
2022-10-29T06:06:12.274Z,6.28
2022-10-29T06:08:44.160Z,7.25
2022-10-29T06:11:15.344Z,8.05
2022-10-29T06:13:44.449Z,13.38
2022-10-29T06:16:13.515Z,9.63
2022-10-29T06:18:48.114Z,9.13
2022-10-29T06:21:17.221Z,6.72
2022-10-29T06:23:53.734Z,6.90
2022-10-29T06:26:25.049Z,7.88
2022-10-29T06:31:39.509Z,5.65
2022-10-29T06:34:08.647Z,5.50
2022-10-29T06:36:42.693Z,4.57
2022-10-29T06:39:11.838Z,5.00
2022-10-29T06:41:43.103Z,4.68
2022-10-29T06:44:15.313Z,5.13
2022-10-29T06:46:44.441Z,5.13
2022-10-29T06:49:13.468Z,4.85
2022-10-29T06:51:42.606Z,4.25
2022-10-29T06:54:11.808Z,4.57
2022-10-29T06:56:42.947Z,4.30
2022-10-29T06:59:12.209Z,4.22
2022-10-29T07:01:41.368Z,4.50
2022-10-29T07:04:10.511Z,4.30
2022-10-29T07:06:39.583Z,3.97
2022-10-29T07:09:08.877Z,4.47
2022-10-29T07:11:37.936Z,4.68
2022-10-29T07:14:14.515Z,4.30
2022-10-29T07:16:43.716Z,4.85
2022-10-29T07:19:12.691Z,4.72
2022-10-29T07:21:45.964Z,4.15
2022-10-29T07:24:17.184Z,4.20
2022-10-29T07:26:46.275Z,4.38
2022-10-29T07:29:17.521Z,4.72
2022-10-29T07:31:49.150Z,4.25
2022-10-29T07:34:18.631Z,4.30
2022-10-29T07:36:47.588Z,4.60
2022-10-29T07:39:16.933Z,4.78
2022-10-29T07:41:46.130Z,4.63
2022-10-29T07:44:22.687Z,4.40
2022-10-29T07:46:51.920Z,4.95
2022-10-29T07:49:21.475Z,4.45
2022-10-29T07:51:55.903Z,5.03
2022-10-29T07:54:25.096Z,4.93
2022-10-29T07:56:54.293Z,5.00
2022-10-29T07:59:25.400Z,4.93
2022-10-29T08:01:54.713Z,5.13
2022-10-29T08:04:24.048Z,5.40
2022-10-29T08:06:53.268Z,5.32
2022-10-29T08:09:27.449Z,4.90
2022-10-29T08:11:56.659Z,4.90
2022-10-29T08:14:27.723Z,5.40
2022-10-29T08:16:56.960Z,5.18
2022-10-29T08:19:26.005Z,5.07
2022-10-29T08:21:55.239Z,5.05
2022-10-29T08:24:24.863Z,5.18
2022-10-29T08:26:54.331Z,5.47
2022-10-29T08:29:24.437Z,5.20
2022-10-29T08:32:00.992Z,5.18
2022-10-29T08:34:30.322Z,6.10
2022-10-29T08:36:59.538Z,6.18
2022-10-29T08:39:28.772Z,5.45
2022-10-29T08:42:11.818Z,5.47
2022-10-29T08:45:06.840Z,5.28
2022-10-29T08:47:55.206Z,5.03
2022-10-29T08:50:30.565Z,4.78
2022-10-29T08:55:54.170Z,4.85
2022-10-29T08:58:32.758Z,5.28
2022-10-29T09:01:02.301Z,4.80
2022-10-29T09:03:34.128Z,4.85
2022-10-29T09:06:17.931Z,4.90
2022-10-29T09:08:59.090Z,4.20
2022-10-29T09:11:50.544Z,4.75
2022-10-29T09:14:35.124Z,4.13
2022-10-29T09:17:15.862Z,5.38
2022-10-29T09:20:07.179Z,4.15
2022-10-29T09:22:42.367Z,4.47
2022-10-29T09:25:24.172Z,4.35
2022-10-29T09:28:08.295Z,4.13
2022-10-29T09:30:44.064Z,4.25
2022-10-29T09:33:19.012Z,4.47
2022-10-29T09:35:56.069Z,4.75
2022-10-29T09:38:29.644Z,4.88
2022-10-29T09:41:00.855Z,4.97
2022-10-29T09:43:48.777Z,4.47
2022-10-29T09:46:29.262Z,4.88
2022-10-29T09:49:08.021Z,5.25
2022-10-29T09:51:48.054Z,4.93
2022-10-29T09:54:23.323Z,5.05
2022-10-29T09:56:54.843Z,4.53
2022-10-29T09:59:31.385Z,5.07
2022-10-29T10:02:01.255Z,4.97
2022-10-29T10:04:34.103Z,5.05
2022-10-29T10:07:08.605Z,5.93
2022-10-29T10:09:59.428Z,5.85
2022-10-29T10:12:30.767Z,5.90
2022-10-29T10:15:04.970Z,5.97
2022-10-29T10:17:56.638Z,6.50
2022-10-29T10:20:33.925Z,6.20
2022-10-29T10:23:24.182Z,7.03
2022-10-29T10:26:03.712Z,6.57
2022-10-29T10:28:36.084Z,7.20
2022-10-29T10:31:12.381Z,6.93
2022-10-29T10:33:52.600Z,6.72
2022-10-29T10:36:25.281Z,7.65
2022-10-29T10:41:46.424Z,7.07
2022-10-29T10:44:15.712Z,7.93
2022-10-29T10:46:51.411Z,9.00
2022-10-29T10:52:04.770Z,8.55
2022-10-29T10:54:41.505Z,7.90
2022-10-29T10:57:23.921Z,7.97
2022-10-29T11:00:04.399Z,9.40
2022-10-29T11:02:46.935Z,9.00
2022-10-29T11:05:20.034Z,9.20
2022-10-29T11:07:57.091Z,9.40
2022-10-29T11:10:36.002Z,9.20
2022-10-29T11:13:08.964Z,9.02
2022-10-29T11:15:42.775Z,9.23
2022-10-29T11:18:20.044Z,9.68
2022-10-29T11:20:55.570Z,9.43
2022-10-29T11:23:35.769Z,9.73
2022-10-29T11:26:17.762Z,10.23
2022-10-29T11:28:56.117Z,9.73
2022-10-29T11:31:33.145Z,10.38
2022-10-29T11:34:13.637Z,9.75
2022-10-29T11:36:56.849Z,9.90
2022-10-29T11:39:33.344Z,10.40
2022-10-29T11:42:06.621Z,10.75
2022-10-29T11:44:46.390Z,10.52
2022-10-29T11:47:34.465Z,10.77
2022-10-29T11:50:27.125Z,10.35
2022-10-29T11:53:04.218Z,9.98
2022-10-29T11:55:48.643Z,10.02
2022-10-29T11:58:24.308Z,9.20
2022-10-29T12:01:01.899Z,9.70
2022-10-29T12:03:56.962Z,10.05
2022-10-29T12:06:33.702Z,10.55
2022-10-29T12:09:28.532Z,10.18
2022-10-29T12:12:04.834Z,9.77
2022-10-29T12:14:43.903Z,9.32
2022-10-29T12:17:19.732Z,9.90
2022-10-29T12:19:56.643Z,9.98
2022-10-29T12:22:36.447Z,9.50
2022-10-29T12:25:26.581Z,9.85
2022-10-29T12:28:06.807Z,9.50
2022-10-29T12:30:47.378Z,9.18
2022-10-29T12:33:27.666Z,9.30
2022-10-29T12:36:04.812Z,7.93
2022-10-29T12:38:42.866Z,7.95
2022-10-29T12:41:19.005Z,9.23
2022-10-29T12:43:50.000Z,8.25
2022-10-29T12:46:33.753Z,9.30
2022-10-29T12:58:50.554Z,9.30
2022-10-29T13:02:12.697Z,9.40
2022-10-29T13:07:40.151Z,9.20
2022-10-29T13:10:39.831Z,8.82
2022-10-29T13:13:36.350Z,7.88
2022-10-29T13:16:09.501Z,7.93
2022-10-29T13:18:50.383Z,8.30
2022-10-29T13:21:49.098Z,8.48
2022-10-29T13:24:18.932Z,7.90
2022-10-29T13:27:29.720Z,7.72
2022-10-29T13:30:23.495Z,8.27
2022-10-29T13:32:58.802Z,8.40
2022-10-29T13:35:46.325Z,8.82
2022-10-29T13:38:17.794Z,8.50
2022-10-29T13:41:15.413Z,8.38
2022-10-29T13:43:54.994Z,8.55
2022-10-29T13:46:51.188Z,8.68
2022-10-29T13:49:30.646Z,8.45
2022-10-29T13:52:08.173Z,8.32
2022-10-29T13:54:41.989Z,8.05
2022-10-29T13:57:21.776Z,7.88
2022-10-29T13:59:56.152Z,8.43
2022-10-29T14:02:38.822Z,8.50
2022-10-29T14:05:16.207Z,8.45
2022-10-29T14:07:52.466Z,7.25
2022-10-29T14:10:26.077Z,7.43
2022-10-29T14:12:59.763Z,6.68
2022-10-29T14:18:26.793Z,7.47
2022-10-29T14:21:00.439Z,7.03
2022-10-29T14:23:30.919Z,6.70
2022-10-29T14:28:47.176Z,6.78
2022-10-29T14:31:18.980Z,7.05
2022-10-29T14:34:01.088Z,6.97
2022-10-29T14:36:34.975Z,6.60
2022-10-29T14:41:50.043Z,6.57
2022-10-29T14:44:21.357Z,6.22
2022-10-29T14:46:58.004Z,6.57
2022-10-29T14:49:30.426Z,5.90
2022-10-29T14:52:03.242Z,6.65
2022-10-29T14:54:36.963Z,6.18
2022-10-29T14:57:11.856Z,5.90
2022-10-29T14:59:45.098Z,5.55
2022-10-29T15:05:25.895Z,5.93
2022-10-29T15:08:12.125Z,5.40
2022-10-29T15:10:48.300Z,5.95
2022-10-29T15:13:25.300Z,5.80
2022-10-29T15:16:01.464Z,5.82
2022-10-29T15:21:23.383Z,5.95
2022-10-29T15:23:57.724Z,5.85
2022-10-29T15:26:26.910Z,5.93
2022-10-29T15:28:58.008Z,5.95
2022-10-29T15:31:32.911Z,5.30
2022-10-29T15:34:11.315Z,6.18
2022-10-29T15:36:53.137Z,5.57
2022-10-29T15:39:26.338Z,5.38
2022-10-29T15:41:58.324Z,4.85
2022-10-29T15:44:33.893Z,5.72
2022-10-29T15:47:04.908Z,5.35
2022-10-29T15:49:34.125Z,5.30
2022-10-29T15:52:06.032Z,6.13
2022-10-29T15:54:41.037Z,5.57
2022-10-29T15:57:12.594Z,6.97
2022-10-29T15:59:42.370Z,4.90
2022-10-29T16:02:13.968Z,5.38
2022-10-29T16:04:43.581Z,6.18
2022-10-29T16:07:17.298Z,4.85
2022-10-29T16:09:50.024Z,5.30
2022-10-29T16:12:19.461Z,5.20
2022-10-29T16:14:48.552Z,5.55
2022-10-29T16:17:20.525Z,4.90
2022-10-29T16:22:33.592Z,5.10
2022-10-29T16:25:02.986Z,5.72
2022-10-29T16:27:32.636Z,5.47
2022-10-29T16:30:01.774Z,5.70
2022-10-29T16:32:33.408Z,5.85
2022-10-29T16:35:02.625Z,6.18
2022-10-29T16:37:34.390Z,5.90
2022-10-29T16:40:03.710Z,5.57
2022-10-29T16:42:35.953Z,5.40
2022-10-29T16:45:05.567Z,5.65
2022-10-29T16:47:34.753Z,5.90
2022-10-29T16:50:03.984Z,5.32
2022-10-29T16:52:35.102Z,5.30
2022-10-29T16:55:04.499Z,5.60
2022-10-29T16:57:33.609Z,5.20
2022-10-29T17:00:02.820Z,5.38
2022-10-29T17:02:34.158Z,5.05
2022-10-29T17:05:03.479Z,5.10
2022-10-29T17:07:34.561Z,5.43
2022-10-29T17:10:03.796Z,5.03
2022-10-29T17:12:33.142Z,5.20
2022-10-29T17:15:02.391Z,4.88
2022-10-29T17:17:33.530Z,5.35
2022-10-29T17:20:02.691Z,4.80
2022-10-29T17:22:35.043Z,5.10
2022-10-29T17:27:33.136Z,5.25
2022-10-29T17:30:08.647Z,5.50
2022-10-29T17:32:38.262Z,5.28
2022-10-29T17:35:08.423Z,5.47
2022-10-29T17:37:39.896Z,4.80
2022-10-29T17:40:10.311Z,5.43
2022-10-29T17:42:39.390Z,5.40
2022-10-29T17:45:10.242Z,5.10
2022-10-29T17:50:29.620Z,5.20
2022-10-29T17:53:00.725Z,5.30
2022-10-29T17:55:35.260Z,5.38
2022-10-29T17:58:42.771Z,5.25
2022-10-29T18:01:12.162Z,5.15
2022-10-29T18:03:41.761Z,5.60
2022-10-29T18:06:12.710Z,6.43
2022-10-29T18:08:45.077Z,5.78
2022-10-29T18:11:16.706Z,5.53
2022-10-29T18:13:47.219Z,6.45
2022-10-29T18:16:18.017Z,6.30
2022-10-29T18:19:01.430Z,6.15
2022-10-29T18:21:41.549Z,5.70
2022-10-29T18:24:18.947Z,6.03
2022-10-29T18:26:52.363Z,6.47
2022-10-29T18:29:21.533Z,6.13
2022-10-29T18:31:50.599Z,6.63
2022-10-29T18:34:33.908Z,6.38
2022-10-29T18:39:33.935Z,5.50
2022-10-29T18:42:03.549Z,6.40
2022-10-29T18:44:32.886Z,6.93
2022-10-29T18:47:02.134Z,6.47
2022-10-29T18:49:31.234Z,7.47
2022-10-29T18:52:05.599Z,6.85
2022-10-29T18:54:36.922Z,6.78
2022-10-29T18:57:19.272Z,6.63
2022-10-29T18:59:48.783Z,7.57
2022-10-29T19:02:18.193Z,6.38
2022-10-29T19:04:47.456Z,7.43
2022-10-29T19:07:19.309Z,7.57
2022-10-29T19:09:50.901Z,7.22
2022-10-29T19:12:20.138Z,6.82
2022-10-29T19:14:52.422Z,7.78
2022-10-29T19:17:21.794Z,8.43
2022-10-29T19:19:50.835Z,7.28
2022-10-29T19:22:25.166Z,7.07
2022-10-29T19:25:01.447Z,6.22
2022-10-29T19:27:33.082Z,8.13
2022-10-29T19:30:02.870Z,6.90
2022-10-29T19:32:33.217Z,7.13
2022-10-29T19:35:09.171Z,6.85
2022-10-29T19:37:38.920Z,6.70
2022-10-29T19:40:15.431Z,7.18
2022-10-29T19:42:44.564Z,7.32
2022-10-29T19:45:13.715Z,6.60
2022-10-29T19:47:43.546Z,6.97
2022-10-29T19:50:12.833Z,6.82
2022-10-29T19:52:42.364Z,7.55
2022-10-29T19:55:19.781Z,5.97
2022-10-29T19:57:49.207Z,6.20
2022-10-29T20:00:19.611Z,6.25
2022-10-29T20:02:48.744Z,7.15
2022-10-29T20:05:29.371Z,6.72
2022-10-29T20:07:58.985Z,6.80
2022-10-29T20:10:30.618Z,5.72
2022-10-29T20:13:07.949Z,5.97
2022-10-29T20:15:37.662Z,5.93
2022-10-29T20:18:07.431Z,5.75
2022-10-29T20:20:36.741Z,6.32
2022-10-29T20:23:05.843Z,5.50
2022-10-29T20:25:36.946Z,5.95
2022-10-29T20:28:06.465Z,5.05
2022-10-29T20:30:35.688Z,5.85
2022-10-29T20:33:04.802Z,5.40
2022-10-29T20:35:38.872Z,5.57
2022-10-29T20:38:08.481Z,5.53
2022-10-29T20:40:39.625Z,5.43
2022-10-29T20:43:11.008Z,4.53
2022-10-29T20:45:45.323Z,4.60
2022-10-29T20:48:14.650Z,4.75
2022-10-29T20:50:43.882Z,4.47
2022-10-29T20:53:12.914Z,4.35
2022-10-29T20:55:44.168Z,4.22
2022-10-29T20:58:18.424Z,4.00
2022-10-29T21:00:47.748Z,4.22
2022-10-29T21:03:18.421Z,4.35
2022-10-29T21:08:30.432Z,4.85
2022-10-29T21:11:07.798Z,4.10
2022-10-29T21:13:37.384Z,4.60
2022-10-29T21:16:08.078Z,4.63
2022-10-29T21:18:41.002Z,5.13
2022-10-29T21:21:10.973Z,4.97
2022-10-29T21:23:40.579Z,5.47
2022-10-29T21:26:14.029Z,8.23
2022-10-29T21:28:43.319Z,8.73
2022-10-29T21:31:17.695Z,10.55
2022-10-29T21:33:47.285Z,10.30
2022-10-29T21:36:16.475Z,9.18
2022-10-29T21:38:45.881Z,8.65
2022-10-29T21:41:17.755Z,7.85
2022-10-29T21:43:53.227Z,6.93
2022-10-29T21:46:22.342Z,6.47
2022-10-29T21:48:51.545Z,6.07
2022-10-29T21:51:25.702Z,5.22
2022-10-29T21:53:58.634Z,4.93
2022-10-29T21:56:29.812Z,5.25
2022-10-29T21:58:59.132Z,4.07
2022-10-29T22:01:32.096Z,4.10
2022-10-29T22:04:05.312Z,4.10
2022-10-29T22:06:34.395Z,4.32
2022-10-29T22:09:03.595Z,4.03
2022-10-29T22:11:35.021Z,3.58
2022-10-29T22:14:04.254Z,4.15
2022-10-29T22:16:33.411Z,3.67
2022-10-29T22:19:07.854Z,3.90
2022-10-29T22:21:37.021Z,3.47
2022-10-29T22:24:07.113Z,3.30
2022-10-29T22:26:38.304Z,3.60
2022-10-29T22:29:07.516Z,3.80
2022-10-29T22:33:14.759Z,3.40
2022-10-29T22:34:29.242Z,3.38
2022-10-29T22:36:58.535Z,2.40
2022-10-29T22:39:28.172Z,2.92
2022-10-29T22:41:59.327Z,3.17
2022-10-29T22:44:28.555Z,2.63
2022-10-29T22:46:57.581Z,2.60
2022-10-29T22:49:29.436Z,2.70
2022-10-29T22:52:01.467Z,2.13
2022-10-29T22:54:36.107Z,2.58
2022-10-29T22:59:52.050Z,2.13
2022-10-29T23:02:27.953Z,2.28
2022-10-29T23:04:57.458Z,2.15
2022-10-29T23:07:26.549Z,2.13
2022-10-29T23:09:55.721Z,2.00
2022-10-29T23:12:26.906Z,2.45
2022-10-29T23:15:04.223Z,2.30
2022-10-29T23:17:33.527Z,2.15
2022-10-29T23:20:02.655Z,2.45
2022-10-29T23:22:38.130Z,2.33
2022-10-29T23:25:08.187Z,2.80
2022-10-29T23:27:44.357Z,2.90
2022-10-29T23:30:14.617Z,3.13
2022-10-29T23:32:46.104Z,3.63
2022-10-29T23:35:15.385Z,4.05
2022-10-29T23:37:44.549Z,3.70
2022-10-29T23:40:14.559Z,4.43
2022-10-29T23:42:45.523Z,4.47
2022-10-29T23:45:21.594Z,5.00
2022-10-29T23:47:50.743Z,4.93
2022-10-29T23:50:19.815Z,4.57
2022-10-29T23:52:54.063Z,7.63
2022-10-29T23:55:23.169Z,6.43
